KCFV/CFV METAR and TAF weather

Enter ICAO airport designator
Station Type Date Time Source
KCFV METAR 2020/04/04 20:52 UTC NOAA

KCFV 042052Z AUTO 03007KT 10SM OVC012 05/02 A3011 RMK AO2 SLP199 T00500017 56023


Station Type Date Time Source
KCFV Decoded METAR 2020/04/04 20:52 UTC NOAA

COFFEYVILLE MUNICIPAL AIRPORT , KS, United States (KCFV) 37-05N 95-34W 225M
Apr 04, 2020 - 04:52 PM EDT / 2020.04.04 2052 UTC
Wind: from the NNE (030 degrees) at 8 MPH (7 KT):0
Visibility: 10 mile(s):0
Sky conditions: overcast
Temperature: 41.0 F (5.0 C)
Dew Point: 35.1 F (1.7 C)
Relative Humidity: 79%
Pressure (altimeter): 30.11 in. Hg (1019 hPa)
Pressure tendency: 0.07 inches (2.3 hPa) lower than three hours ago
ob: KCFV 042052Z AUTO 03007KT 10SM OVC012 05/02 A3011 RMK AO2 SLP199 T00500017 56023
cycle: 21

Station Type Date Time Source
KCFV TAF UTC NOAA

Error!

Example: see airport list